sensor_id;sensor_type;location;lat;lon;timestamp;P1;durP1;ratioP1;P2;durP2;ratioP2
18146;SDS011;9199;48.832;9.182;2024-01-16T00:01:55;8.57;;;2.55;;
18146;SDS011;9199;48.832;9.182;2024-01-16T00:04:23;5.25;;;2.40;;
18146;SDS011;9199;48.832;9.182;2024-01-16T00:06:51;6.20;;;2.70;;
18146;SDS011;9199;48.832;9.182;2024-01-16T00:09:18;6.80;;;2.30;;
18146;SDS011;9199;48.832;9.182;2024-01-16T00:11:45;7.45;;;2.50;;
18146;SDS011;9199;48.832;9.182;2024-01-16T00:14:11;5.53;;;2.50;;
18146;SDS011;9199;48.832;9.182;2024-01-16T00:16:41;6.38;;;2.33;;
18146;SDS011;9199;48.832;9.182;2024-01-16T00:19:10;6.53;;;2.30;;
18146;SDS011;9199;48.832;9.182;2024-01-16T00:21:41;5.67;;;2.63;;
18146;SDS011;9199;48.832;9.182;2024-01-16T00:24:10;6.90;;;2.88;;
18146;SDS011;9199;48.832;9.182;2024-01-16T00:26:37;5.28;;;2.60;;
18146;SDS011;9199;48.832;9.182;2024-01-16T00:29:04;5.55;;;2.50;;
18146;SDS011;9199;48.832;9.182;2024-01-16T00:31:30;7.13;;;2.53;;
18146;SDS011;9199;48.832;9.182;2024-01-16T00:33:57;5.77;;;2.63;;
18146;SDS011;9199;48.832;9.182;2024-01-16T00:36:24;6.78;;;2.75;;
18146;SDS011;9199;48.832;9.182;2024-01-16T00:38:52;7.68;;;3.03;;
18146;SDS011;9199;48.832;9.182;2024-01-16T00:41:19;7.03;;;2.45;;
18146;SDS011;9199;48.832;9.182;2024-01-16T00:43:46;8.65;;;3.20;;
18146;SDS011;9199;48.832;9.182;2024-01-16T00:46:13;7.13;;;2.60;;
18146;SDS011;9199;48.832;9.182;2024-01-16T00:48:40;7.47;;;2.90;;
18146;SDS011;9199;48.832;9.182;2024-01-16T00:51:06;5.75;;;2.80;;
18146;SDS011;9199;48.832;9.182;2024-01-16T00:53:33;8.00;;;2.70;;
18146;SDS011;9199;48.832;9.182;2024-01-16T00:56:07;6.90;;;2.45;;
18146;SDS011;9199;48.832;9.182;2024-01-16T00:58:34;8.47;;;2.70;;
18146;SDS011;9199;48.832;9.182;2024-01-16T01:01:01;5.65;;;2.60;;
18146;SDS011;9199;48.832;9.182;2024-01-16T01:03:27;8.18;;;3.13;;
18146;SDS011;9199;48.832;9.182;2024-01-16T01:05:54;6.63;;;2.78;;
18146;SDS011;9199;48.832;9.182;2024-01-16T01:08:21;7.82;;;3.33;;
18146;SDS011;9199;48.832;9.182;2024-01-16T01:10:48;9.10;;;3.10;;
18146;SDS011;9199;48.832;9.182;2024-01-16T01:13:16;7.65;;;3.13;;
18146;SDS011;9199;48.832;9.182;2024-01-16T01:15:43;6.20;;;2.83;;
18146;SDS011;9199;48.832;9.182;2024-01-16T01:18:10;7.93;;;3.45;;
18146;SDS011;9199;48.832;9.182;2024-01-16T01:20:37;7.95;;;3.15;;
18146;SDS011;9199;48.832;9.182;2024-01-16T01:23:04;7.07;;;3.10;;
18146;SDS011;9199;48.832;9.182;2024-01-16T01:25:30;6.15;;;2.70;;
18146;SDS011;9199;48.832;9.182;2024-01-16T01:27:57;6.38;;;2.95;;
18146;SDS011;9199;48.832;9.182;2024-01-16T01:30:25;5.97;;;2.65;;
18146;SDS011;9199;48.832;9.182;2024-01-16T01:32:52;10.80;;;3.25;;
18146;SDS011;9199;48.832;9.182;2024-01-16T01:35:19;6.97;;;3.03;;
18146;SDS011;9199;48.832;9.182;2024-01-16T01:37:46;8.57;;;3.10;;
18146;SDS011;9199;48.832;9.182;2024-01-16T01:40:12;7.10;;;2.95;;
18146;SDS011;9199;48.832;9.182;2024-01-16T01:42:40;8.40;;;2.92;;
18146;SDS011;9199;48.832;9.182;2024-01-16T01:45:08;7.80;;;3.20;;
18146;SDS011;9199;48.832;9.182;2024-01-16T01:47:37;6.87;;;3.10;;
18146;SDS011;9199;48.832;9.182;2024-01-16T01:50:05;8.10;;;3.00;;
18146;SDS011;9199;48.832;9.182;2024-01-16T01:52:34;6.85;;;3.17;;
18146;SDS011;9199;48.832;9.182;2024-01-16T01:55:01;7.70;;;3.22;;
18146;SDS011;9199;48.832;9.182;2024-01-16T01:57:31;9.38;;;3.55;;
18146;SDS011;9199;48.832;9.182;2024-01-16T01:59:59;7.20;;;2.80;;
18146;SDS011;9199;48.832;9.182;2024-01-16T02:02:26;8.68;;;3.35;;
18146;SDS011;9199;48.832;9.182;2024-01-16T02:04:55;7.25;;;2.95;;
18146;SDS011;9199;48.832;9.182;2024-01-16T02:07:23;6.03;;;3.08;;
18146;SDS011;9199;48.832;9.182;2024-01-16T02:09:50;10.23;;;3.40;;
18146;SDS011;9199;48.832;9.182;2024-01-16T02:12:17;8.87;;;3.00;;
18146;SDS011;9199;48.832;9.182;2024-01-16T02:14:45;5.63;;;2.80;;
18146;SDS011;9199;48.832;9.182;2024-01-16T02:17:12;5.70;;;2.90;;
18146;SDS011;9199;48.832;9.182;2024-01-16T02:19:39;7.47;;;3.50;;
18146;SDS011;9199;48.832;9.182;2024-01-16T02:22:07;6.97;;;3.22;;
18146;SDS011;9199;48.832;9.182;2024-01-16T02:24:39;8.63;;;3.50;;
18146;SDS011;9199;48.832;9.182;2024-01-16T02:27:07;9.15;;;3.05;;
18146;SDS011;9199;48.832;9.182;2024-01-16T02:29:33;6.18;;;2.80;;
18146;SDS011;9199;48.832;9.182;2024-01-16T02:32:06;8.57;;;3.33;;
18146;SDS011;9199;48.832;9.182;2024-01-16T02:34:33;6.00;;;2.92;;
18146;SDS011;9199;48.832;9.182;2024-01-16T02:37:00;8.73;;;3.30;;
18146;SDS011;9199;48.832;9.182;2024-01-16T02:39:26;9.38;;;3.03;;
18146;SDS011;9199;48.832;9.182;2024-01-16T02:41:55;10.02;;;3.50;;
18146;SDS011;9199;48.832;9.182;2024-01-16T02:44:21;9.38;;;3.22;;
18146;SDS011;9199;48.832;9.182;2024-01-16T02:46:49;7.47;;;3.35;;
18146;SDS011;9199;48.832;9.182;2024-01-16T02:49:15;8.53;;;3.00;;
18146;SDS011;9199;48.832;9.182;2024-01-16T02:51:42;7.38;;;3.00;;
18146;SDS011;9199;48.832;9.182;2024-01-16T02:54:09;7.68;;;3.20;;
18146;SDS011;9199;48.832;9.182;2024-01-16T02:56:37;7.03;;;2.92;;
18146;SDS011;9199;48.832;9.182;2024-01-16T02:59:05;7.35;;;3.40;;
18146;SDS011;9199;48.832;9.182;2024-01-16T03:01:32;8.50;;;3.60;;
18146;SDS011;9199;48.832;9.182;2024-01-16T03:03:59;9.40;;;3.83;;
18146;SDS011;9199;48.832;9.182;2024-01-16T03:06:26;7.13;;;3.33;;
18146;SDS011;9199;48.832;9.182;2024-01-16T03:08:53;7.28;;;3.17;;
18146;SDS011;9199;48.832;9.182;2024-01-16T03:11:20;6.40;;;2.92;;
18146;SDS011;9199;48.832;9.182;2024-01-16T03:13:47;7.17;;;2.93;;
18146;SDS011;9199;48.832;9.182;2024-01-16T03:16:16;8.10;;;3.10;;
18146;SDS011;9199;48.832;9.182;2024-01-16T03:18:43;6.75;;;3.20;;
18146;SDS011;9199;48.832;9.182;2024-01-16T03:21:10;8.57;;;2.92;;
18146;SDS011;9199;48.832;9.182;2024-01-16T03:23:40;8.00;;;3.40;;
18146;SDS011;9199;48.832;9.182;2024-01-16T03:26:11;8.17;;;3.30;;
18146;SDS011;9199;48.832;9.182;2024-01-16T03:28:38;7.97;;;3.15;;
18146;SDS011;9199;48.832;9.182;2024-01-16T03:31:05;7.18;;;3.53;;
18146;SDS011;9199;48.832;9.182;2024-01-16T03:33:34;6.93;;;3.05;;
18146;SDS011;9199;48.832;9.182;2024-01-16T03:36:06;7.82;;;3.13;;
18146;SDS011;9199;48.832;9.182;2024-01-16T03:38:33;9.00;;;3.10;;
18146;SDS011;9199;48.832;9.182;2024-01-16T03:41:00;9.38;;;3.42;;
18146;SDS011;9199;48.832;9.182;2024-01-16T03:43:28;7.95;;;3.53;;
18146;SDS011;9199;48.832;9.182;2024-01-16T03:45:56;11.18;;;3.35;;
18146;SDS011;9199;48.832;9.182;2024-01-16T03:48:23;6.30;;;2.85;;
18146;SDS011;9199;48.832;9.182;2024-01-16T03:50:51;9.00;;;3.20;;
18146;SDS011;9199;48.832;9.182;2024-01-16T03:53:19;7.68;;;3.10;;
18146;SDS011;9199;48.832;9.182;2024-01-16T03:55:46;8.98;;;3.20;;
18146;SDS011;9199;48.832;9.182;2024-01-16T03:58:14;7.82;;;3.38;;
18146;SDS011;9199;48.832;9.182;2024-01-16T04:00:41;8.00;;;3.20;;
18146;SDS011;9199;48.832;9.182;2024-01-16T04:03:08;6.87;;;2.93;;
18146;SDS011;9199;48.832;9.182;2024-01-16T04:05:36;8.55;;;2.70;;
18146;SDS011;9199;48.832;9.182;2024-01-16T04:08:04;7.72;;;3.10;;
18146;SDS011;9199;48.832;9.182;2024-01-16T04:10:31;8.20;;;3.20;;
18146;SDS011;9199;48.832;9.182;2024-01-16T04:12:59;8.52;;;3.17;;
18146;SDS011;9199;48.832;9.182;2024-01-16T04:15:26;9.63;;;3.57;;
18146;SDS011;9199;48.832;9.182;2024-01-16T04:17:53;7.47;;;3.25;;
18146;SDS011;9199;48.832;9.182;2024-01-16T04:20:22;7.82;;;3.08;;
18146;SDS011;9199;48.832;9.182;2024-01-16T04:22:49;7.90;;;3.10;;
18146;SDS011;9199;48.832;9.182;2024-01-16T04:25:17;7.32;;;2.92;;
18146;SDS011;9199;48.832;9.182;2024-01-16T04:27:44;7.93;;;2.90;;
18146;SDS011;9199;48.832;9.182;2024-01-16T04:30:11;6.88;;;3.00;;
18146;SDS011;9199;48.832;9.182;2024-01-16T04:32:39;6.90;;;3.00;;
18146;SDS011;9199;48.832;9.182;2024-01-16T04:35:05;7.97;;;3.40;;
18146;SDS011;9199;48.832;9.182;2024-01-16T04:37:33;6.75;;;2.80;;
18146;SDS011;9199;48.832;9.182;2024-01-16T04:40:00;6.53;;;3.10;;
18146;SDS011;9199;48.832;9.182;2024-01-16T04:42:28;8.38;;;3.30;;
18146;SDS011;9199;48.832;9.182;2024-01-16T04:44:54;8.80;;;3.50;;
18146;SDS011;9199;48.832;9.182;2024-01-16T04:47:21;8.13;;;3.10;;
18146;SDS011;9199;48.832;9.182;2024-01-16T04:49:48;8.77;;;3.25;;
18146;SDS011;9199;48.832;9.182;2024-01-16T04:52:15;7.43;;;3.00;;
18146;SDS011;9199;48.832;9.182;2024-01-16T04:54:41;8.70;;;3.70;;
18146;SDS011;9199;48.832;9.182;2024-01-16T04:57:10;7.15;;;2.83;;
18146;SDS011;9199;48.832;9.182;2024-01-16T04:59:38;7.95;;;3.15;;
18146;SDS011;9199;48.832;9.182;2024-01-16T05:02:06;6.03;;;2.80;;
18146;SDS011;9199;48.832;9.182;2024-01-16T05:04:36;7.47;;;2.63;;
18146;SDS011;9199;48.832;9.182;2024-01-16T05:07:03;8.70;;;2.75;;
18146;SDS011;9199;48.832;9.182;2024-01-16T05:09:29;7.25;;;2.97;;
18146;SDS011;9199;48.832;9.182;2024-01-16T05:11:56;7.53;;;3.50;;
18146;SDS011;9199;48.832;9.182;2024-01-16T05:14:23;7.78;;;2.92;;
18146;SDS011;9199;48.832;9.182;2024-01-16T05:16:51;6.33;;;2.97;;
18146;SDS011;9199;48.832;9.182;2024-01-16T05:19:18;7.85;;;3.15;;
18146;SDS011;9199;48.832;9.182;2024-01-16T05:21:45;7.20;;;3.35;;
18146;SDS011;9199;48.832;9.182;2024-01-16T05:24:11;6.95;;;3.30;;
18146;SDS011;9199;48.832;9.182;2024-01-16T05:26:38;8.02;;;2.88;;
18146;SDS011;9199;48.832;9.182;2024-01-16T05:29:05;7.60;;;3.00;;
18146;SDS011;9199;48.832;9.182;2024-01-16T05:31:32;7.32;;;3.30;;
18146;SDS011;9199;48.832;9.182;2024-01-16T05:34:00;7.53;;;3.20;;
18146;SDS011;9199;48.832;9.182;2024-01-16T05:36:26;8.05;;;3.30;;
18146;SDS011;9199;48.832;9.182;2024-01-16T05:38:53;11.98;;;3.42;;
18146;SDS011;9199;48.832;9.182;2024-01-16T05:41:20;9.43;;;3.80;;
18146;SDS011;9199;48.832;9.182;2024-01-16T05:43:46;7.85;;;3.60;;
18146;SDS011;9199;48.832;9.182;2024-01-16T05:46:13;12.55;;;4.13;;
18146;SDS011;9199;48.832;9.182;2024-01-16T05:48:40;10.68;;;4.13;;
18146;SDS011;9199;48.832;9.182;2024-01-16T05:51:08;10.43;;;4.05;;
18146;SDS011;9199;48.832;9.182;2024-01-16T05:53:34;7.10;;;3.53;;
18146;SDS011;9199;48.832;9.182;2024-01-16T05:56:01;7.07;;;3.40;;
18146;SDS011;9199;48.832;9.182;2024-01-16T05:58:28;11.73;;;4.00;;
18146;SDS011;9199;48.832;9.182;2024-01-16T06:00:54;10.02;;;3.70;;
18146;SDS011;9199;48.832;9.182;2024-01-16T06:03:20;9.40;;;3.53;;
18146;SDS011;9199;48.832;9.182;2024-01-16T06:05:47;9.60;;;3.58;;
18146;SDS011;9199;48.832;9.182;2024-01-16T06:08:15;8.95;;;2.83;;
18146;SDS011;9199;48.832;9.182;2024-01-16T06:10:42;8.02;;;3.08;;
18146;SDS011;9199;48.832;9.182;2024-01-16T06:13:09;8.00;;;2.88;;
18146;SDS011;9199;48.832;9.182;2024-01-16T06:15:36;8.40;;;2.77;;
18146;SDS011;9199;48.832;9.182;2024-01-16T06:18:02;7.82;;;2.88;;
18146;SDS011;9199;48.832;9.182;2024-01-16T06:20:29;7.22;;;3.10;;
18146;SDS011;9199;48.832;9.182;2024-01-16T06:22:57;5.35;;;2.35;;
18146;SDS011;9199;48.832;9.182;2024-01-16T06:25:25;7.38;;;2.88;;
18146;SDS011;9199;48.832;9.182;2024-01-16T06:27:52;7.83;;;2.90;;
18146;SDS011;9199;48.832;9.182;2024-01-16T06:30:19;6.40;;;2.70;;
18146;SDS011;9199;48.832;9.182;2024-01-16T06:32:45;7.68;;;3.00;;
18146;SDS011;9199;48.832;9.182;2024-01-16T06:35:13;8.20;;;2.72;;
18146;SDS011;9199;48.832;9.182;2024-01-16T06:37:41;7.32;;;2.80;;
18146;SDS011;9199;48.832;9.182;2024-01-16T06:40:08;7.93;;;2.70;;
18146;SDS011;9199;48.832;9.182;2024-01-16T06:42:37;6.07;;;2.50;;
18146;SDS011;9199;48.832;9.182;2024-01-16T06:45:04;6.45;;;2.40;;
18146;SDS011;9199;48.832;9.182;2024-01-16T06:47:31;8.30;;;2.40;;
18146;SDS011;9199;48.832;9.182;2024-01-16T06:49:58;7.45;;;2.70;;
18146;SDS011;9199;48.832;9.182;2024-01-16T06:52:25;7.27;;;2.33;;
18146;SDS011;9199;48.832;9.182;2024-01-16T06:54:51;8.07;;;2.58;;
18146;SDS011;9199;48.832;9.182;2024-01-16T06:57:18;5.32;;;2.22;;
18146;SDS011;9199;48.832;9.182;2024-01-16T06:59:46;6.00;;;2.55;;
18146;SDS011;9199;48.832;9.182;2024-01-16T07:02:13;7.97;;;2.42;;
18146;SDS011;9199;48.832;9.182;2024-01-16T07:04:40;7.53;;;2.30;;
18146;SDS011;9199;48.832;9.182;2024-01-16T07:07:06;5.75;;;2.50;;
18146;SDS011;9199;48.832;9.182;2024-01-16T07:09:33;6.78;;;2.55;;
18146;SDS011;9199;48.832;9.182;2024-01-16T07:12:00;6.97;;;2.55;;
18146;SDS011;9199;48.832;9.182;2024-01-16T07:14:28;8.43;;;2.95;;
18146;SDS011;9199;48.832;9.182;2024-01-16T07:16:56;6.30;;;2.77;;
18146;SDS011;9199;48.832;9.182;2024-01-16T07:19:24;6.93;;;2.33;;
18146;SDS011;9199;48.832;9.182;2024-01-16T07:21:50;7.03;;;2.75;;
18146;SDS011;9199;48.832;9.182;2024-01-16T07:24:17;6.03;;;2.42;;
18146;SDS011;9199;48.832;9.182;2024-01-16T07:26:44;8.27;;;2.97;;
18146;SDS011;9199;48.832;9.182;2024-01-16T07:29:10;7.27;;;2.70;;
18146;SDS011;9199;48.832;9.182;2024-01-16T07:31:37;7.10;;;2.45;;
18146;SDS011;9199;48.832;9.182;2024-01-16T07:34:05;7.20;;;2.33;;
18146;SDS011;9199;48.832;9.182;2024-01-16T07:36:32;9.77;;;2.55;;
18146;SDS011;9199;48.832;9.182;2024-01-16T07:38:59;7.10;;;2.38;;
18146;SDS011;9199;48.832;9.182;2024-01-16T07:41:25;5.83;;;2.20;;
18146;SDS011;9199;48.832;9.182;2024-01-16T07:43:52;6.07;;;2.28;;
18146;SDS011;9199;48.832;9.182;2024-01-16T07:46:19;6.20;;;2.25;;
18146;SDS011;9199;48.832;9.182;2024-01-16T07:48:45;6.82;;;2.45;;
18146;SDS011;9199;48.832;9.182;2024-01-16T07:51:13;6.22;;;2.63;;
18146;SDS011;9199;48.832;9.182;2024-01-16T07:53:40;6.33;;;2.17;;
18146;SDS011;9199;48.832;9.182;2024-01-16T07:56:07;7.90;;;2.45;;
18146;SDS011;9199;48.832;9.182;2024-01-16T07:58:34;6.63;;;2.40;;
18146;SDS011;9199;48.832;9.182;2024-01-16T08:01:01;5.60;;;2.25;;
18146;SDS011;9199;48.832;9.182;2024-01-16T08:03:28;6.32;;;2.15;;
18146;SDS011;9199;48.832;9.182;2024-01-16T08:05:55;5.57;;;2.10;;
18146;SDS011;9199;48.832;9.182;2024-01-16T08:08:23;5.50;;;2.25;;
18146;SDS011;9199;48.832;9.182;2024-01-16T08:10:50;9.13;;;2.28;;
18146;SDS011;9199;48.832;9.182;2024-01-16T08:13:17;7.50;;;2.50;;
18146;SDS011;9199;48.832;9.182;2024-01-16T08:15:43;7.18;;;2.47;;
18146;SDS011;9199;48.832;9.182;2024-01-16T08:18:10;6.90;;;2.40;;
18146;SDS011;9199;48.832;9.182;2024-01-16T08:20:37;5.97;;;2.20;;
18146;SDS011;9199;48.832;9.182;2024-01-16T08:23:03;10.00;;;2.45;;
18146;SDS011;9199;48.832;9.182;2024-01-16T08:25:31;6.53;;;2.50;;
18146;SDS011;9199;48.832;9.182;2024-01-16T08:27:58;7.18;;;2.53;;
18146;SDS011;9199;48.832;9.182;2024-01-16T08:30:25;5.80;;;2.07;;
18146;SDS011;9199;48.832;9.182;2024-01-16T08:32:52;6.03;;;2.15;;
18146;SDS011;9199;48.832;9.182;2024-01-16T08:35:19;6.60;;;2.65;;
18146;SDS011;9199;48.832;9.182;2024-01-16T08:37:46;6.32;;;2.00;;
18146;SDS011;9199;48.832;9.182;2024-01-16T08:40:14;6.50;;;2.22;;
18146;SDS011;9199;48.832;9.182;2024-01-16T08:42:42;7.77;;;2.47;;
18146;SDS011;9199;48.832;9.182;2024-01-16T08:45:09;5.85;;;2.20;;
18146;SDS011;9199;48.832;9.182;2024-01-16T08:47:36;6.80;;;2.40;;
18146;SDS011;9199;48.832;9.182;2024-01-16T08:50:03;9.05;;;2.50;;
18146;SDS011;9199;48.832;9.182;2024-01-16T08:52:31;6.68;;;2.45;;
18146;SDS011;9199;48.832;9.182;2024-01-16T08:54:57;5.60;;;2.47;;
18146;SDS011;9199;48.832;9.182;2024-01-16T08:57:24;5.93;;;2.30;;
18146;SDS011;9199;48.832;9.182;2024-01-16T08:59:53;7.72;;;2.63;;
18146;SDS011;9199;48.832;9.182;2024-01-16T09:02:19;7.20;;;2.30;;
18146;SDS011;9199;48.832;9.182;2024-01-16T09:04:46;8.40;;;2.90;;
18146;SDS011;9199;48.832;9.182;2024-01-16T09:07:15;7.27;;;3.20;;
18146;SDS011;9199;48.832;9.182;2024-01-16T09:09:42;14.07;;;2.90;;
18146;SDS011;9199;48.832;9.182;2024-01-16T09:12:09;8.02;;;2.78;;
18146;SDS011;9199;48.832;9.182;2024-01-16T09:14:36;9.45;;;2.80;;
18146;SDS011;9199;48.832;9.182;2024-01-16T09:17:04;9.80;;;2.95;;
18146;SDS011;9199;48.832;9.182;2024-01-16T09:19:31;10.90;;;2.53;;
18146;SDS011;9199;48.832;9.182;2024-01-16T09:21:57;7.68;;;2.28;;
18146;SDS011;9199;48.832;9.182;2024-01-16T09:24:24;5.95;;;2.40;;
18146;SDS011;9199;48.832;9.182;2024-01-16T09:26:51;7.70;;;2.20;;
18146;SDS011;9199;48.832;9.182;2024-01-16T09:29:17;7.93;;;2.38;;
18146;SDS011;9199;48.832;9.182;2024-01-16T09:31:45;10.63;;;2.80;;
18146;SDS011;9199;48.832;9.182;2024-01-16T09:34:13;6.18;;;2.60;;
18146;SDS011;9199;48.832;9.182;2024-01-16T09:36:40;8.90;;;2.70;;
18146;SDS011;9199;48.832;9.182;2024-01-16T09:39:07;8.60;;;2.65;;
18146;SDS011;9199;48.832;9.182;2024-01-16T09:41:35;8.10;;;2.58;;
18146;SDS011;9199;48.832;9.182;2024-01-16T09:44:02;6.07;;;2.47;;
18146;SDS011;9199;48.832;9.182;2024-01-16T09:46:30;6.70;;;2.45;;
18146;SDS011;9199;48.832;9.182;2024-01-16T09:48:58;8.35;;;2.60;;
18146;SDS011;9199;48.832;9.182;2024-01-16T09:51:28;8.45;;;2.97;;
18146;SDS011;9199;48.832;9.182;2024-01-16T09:53:55;15.27;;;4.30;;
18146;SDS011;9199;48.832;9.182;2024-01-16T09:56:22;8.33;;;3.33;;
18146;SDS011;9199;48.832;9.182;2024-01-16T09:58:54;14.63;;;3.53;;
18146;SDS011;9199;48.832;9.182;2024-01-16T10:01:24;17.40;;;3.13;;
18146;SDS011;9199;48.832;9.182;2024-01-16T10:03:53;17.05;;;2.90;;
18146;SDS011;9199;48.832;9.182;2024-01-16T10:06:20;5.55;;;2.17;;
18146;SDS011;9199;48.832;9.182;2024-01-16T10:08:49;6.40;;;2.40;;
18146;SDS011;9199;48.832;9.182;2024-01-16T10:11:15;6.20;;;2.20;;
18146;SDS011;9199;48.832;9.182;2024-01-16T10:13:44;6.30;;;2.35;;
18146;SDS011;9199;48.832;9.182;2024-01-16T10:16:11;11.15;;;3.00;;
18146;SDS011;9199;48.832;9.182;2024-01-16T10:18:37;12.15;;;3.40;;
18146;SDS011;9199;48.832;9.182;2024-01-16T10:21:04;6.30;;;2.70;;
18146;SDS011;9199;48.832;9.182;2024-01-16T10:23:37;6.90;;;2.63;;
18146;SDS011;9199;48.832;9.182;2024-01-16T10:26:07;8.07;;;2.40;;
18146;SDS011;9199;48.832;9.182;2024-01-16T10:28:35;6.95;;;2.50;;
18146;SDS011;9199;48.832;9.182;2024-01-16T10:31:03;7.25;;;2.50;;
18146;SDS011;9199;48.832;9.182;2024-01-16T10:33:30;5.63;;;2.40;;
18146;SDS011;9199;48.832;9.182;2024-01-16T10:36:10;9.90;;;2.55;;
18146;SDS011;9199;48.832;9.182;2024-01-16T10:38:38;8.02;;;2.70;;
18146;SDS011;9199;48.832;9.182;2024-01-16T10:41:06;7.80;;;2.58;;
18146;SDS011;9199;48.832;9.182;2024-01-16T10:43:36;7.10;;;2.30;;
18146;SDS011;9199;48.832;9.182;2024-01-16T10:46:07;9.83;;;2.77;;
18146;SDS011;9199;48.832;9.182;2024-01-16T10:48:36;8.48;;;2.30;;
18146;SDS011;9199;48.832;9.182;2024-01-16T10:51:04;9.75;;;2.85;;
18146;SDS011;9199;48.832;9.182;2024-01-16T10:53:32;9.07;;;3.35;;
18146;SDS011;9199;48.832;9.182;2024-01-16T10:56:00;9.15;;;3.35;;
18146;SDS011;9199;48.832;9.182;2024-01-16T10:58:30;8.47;;;2.63;;
18146;SDS011;9199;48.832;9.182;2024-01-16T11:00:57;10.52;;;3.13;;
18146;SDS011;9199;48.832;9.182;2024-01-16T11:03:29;10.88;;;2.53;;
18146;SDS011;9199;48.832;9.182;2024-01-16T11:06:01;7.00;;;2.72;;
18146;SDS011;9199;48.832;9.182;2024-01-16T11:08:31;7.57;;;2.45;;
18146;SDS011;9199;48.832;9.182;2024-01-16T11:10:58;7.70;;;3.23;;
18146;SDS011;9199;48.832;9.182;2024-01-16T11:13:26;10.82;;;3.17;;
18146;SDS011;9199;48.832;9.182;2024-01-16T11:15:54;7.82;;;2.80;;
18146;SDS011;9199;48.832;9.182;2024-01-16T11:18:23;8.15;;;2.85;;
18146;SDS011;9199;48.832;9.182;2024-01-16T11:20:52;8.95;;;2.95;;
18146;SDS011;9199;48.832;9.182;2024-01-16T11:23:20;8.97;;;3.00;;
18146;SDS011;9199;48.832;9.182;2024-01-16T11:25:47;9.60;;;3.17;;
18146;SDS011;9199;48.832;9.182;2024-01-16T11:28:14;6.40;;;2.60;;
18146;SDS011;9199;48.832;9.182;2024-01-16T11:30:42;11.07;;;2.85;;
18146;SDS011;9199;48.832;9.182;2024-01-16T11:39:09;8.70;;;2.80;;
18146;SDS011;9199;48.832;9.182;2024-01-16T11:41:52;9.30;;;2.55;;
18146;SDS011;9199;48.832;9.182;2024-01-16T11:44:39;7.28;;;2.20;;
18146;SDS011;9199;48.832;9.182;2024-01-16T11:47:06;7.07;;;2.53;;
18146;SDS011;9199;48.832;9.182;2024-01-16T11:49:35;7.17;;;2.20;;
18146;SDS011;9199;48.832;9.182;2024-01-16T11:52:02;5.95;;;2.20;;
18146;SDS011;9199;48.832;9.182;2024-01-16T11:54:29;4.47;;;1.90;;
18146;SDS011;9199;48.832;9.182;2024-01-16T11:57:09;6.10;;;2.15;;
18146;SDS011;9199;48.832;9.182;2024-01-16T11:59:55;8.05;;;2.30;;
18146;SDS011;9199;48.832;9.182;2024-01-16T12:02:26;5.23;;;2.00;;
18146;SDS011;9199;48.832;9.182;2024-01-16T12:04:57;7.03;;;2.10;;
18146;SDS011;9199;48.832;9.182;2024-01-16T12:07:28;5.25;;;2.10;;
18146;SDS011;9199;48.832;9.182;2024-01-16T12:09:58;6.35;;;2.00;;
18146;SDS011;9199;48.832;9.182;2024-01-16T12:12:26;6.28;;;1.77;;
18146;SDS011;9199;48.832;9.182;2024-01-16T12:14:53;6.73;;;1.80;;
18146;SDS011;9199;48.832;9.182;2024-01-16T12:17:19;10.68;;;1.70;;
18146;SDS011;9199;48.832;9.182;2024-01-16T12:19:46;8.30;;;2.10;;
18146;SDS011;9199;48.832;9.182;2024-01-16T12:22:16;8.25;;;2.22;;
18146;SDS011;9199;48.832;9.182;2024-01-16T12:24:43;6.40;;;2.10;;
18146;SDS011;9199;48.832;9.182;2024-01-16T12:27:11;5.80;;;1.87;;
18146;SDS011;9199;48.832;9.182;2024-01-16T12:29:39;9.18;;;2.38;;
18146;SDS011;9199;48.832;9.182;2024-01-16T12:32:07;7.50;;;2.45;;
18146;SDS011;9199;48.832;9.182;2024-01-16T12:34:34;5.63;;;1.80;;
18146;SDS011;9199;48.832;9.182;2024-01-16T12:37:09;5.55;;;1.75;;
18146;SDS011;9199;48.832;9.182;2024-01-16T12:39:37;5.87;;;1.80;;
18146;SDS011;9199;48.832;9.182;2024-01-16T12:42:04;7.45;;;1.85;;
18146;SDS011;9199;48.832;9.182;2024-01-16T12:44:31;5.43;;;1.90;;
18146;SDS011;9199;48.832;9.182;2024-01-16T12:46:58;6.82;;;1.85;;
18146;SDS011;9199;48.832;9.182;2024-01-16T12:49:27;6.88;;;2.00;;
18146;SDS011;9199;48.832;9.182;2024-01-16T12:54:47;6.32;;;1.83;;
18146;SDS011;9199;48.832;9.182;2024-01-16T12:57:18;5.25;;;1.38;;
18146;SDS011;9199;48.832;9.182;2024-01-16T12:59:45;4.22;;;1.20;;
18146;SDS011;9199;48.832;9.182;2024-01-16T13:02:19;5.05;;;1.20;;
18146;SDS011;9199;48.832;9.182;2024-01-16T13:04:47;4.53;;;1.30;;
18146;SDS011;9199;48.832;9.182;2024-01-16T13:07:15;2.85;;;1.20;;
18146;SDS011;9199;48.832;9.182;2024-01-16T13:09:42;5.18;;;1.50;;
18146;SDS011;9199;48.832;9.182;2024-01-16T13:12:10;5.90;;;1.42;;
18146;SDS011;9199;48.832;9.182;2024-01-16T13:14:45;4.10;;;1.40;;
18146;SDS011;9199;48.832;9.182;2024-01-16T13:17:12;5.87;;;1.50;;
18146;SDS011;9199;48.832;9.182;2024-01-16T13:19:39;3.17;;;1.30;;
18146;SDS011;9199;48.832;9.182;2024-01-16T13:22:07;5.53;;;1.33;;
18146;SDS011;9199;48.832;9.182;2024-01-16T13:24:33;4.82;;;1.75;;
18146;SDS011;9199;48.832;9.182;2024-01-16T13:27:01;3.78;;;1.40;;
18146;SDS011;9199;48.832;9.182;2024-01-16T13:29:30;5.37;;;1.50;;
18146;SDS011;9199;48.832;9.182;2024-01-16T13:32:00;4.45;;;1.60;;
18146;SDS011;9199;48.832;9.182;2024-01-16T13:34:27;4.93;;;1.80;;
18146;SDS011;9199;48.832;9.182;2024-01-16T13:36:54;5.45;;;1.77;;
18146;SDS011;9199;48.832;9.182;2024-01-16T13:39:25;6.45;;;1.65;;
18146;SDS011;9199;48.832;9.182;2024-01-16T13:41:51;3.67;;;1.43;;
18146;SDS011;9199;48.832;9.182;2024-01-16T13:44:18;6.35;;;2.28;;
18146;SDS011;9199;48.832;9.182;2024-01-16T13:46:46;4.55;;;1.45;;
18146;SDS011;9199;48.832;9.182;2024-01-16T13:49:13;5.72;;;1.60;;
18146;SDS011;9199;48.832;9.182;2024-01-16T13:51:43;4.10;;;1.63;;
18146;SDS011;9199;48.832;9.182;2024-01-16T13:54:10;5.03;;;1.67;;
18146;SDS011;9199;48.832;9.182;2024-01-16T13:56:36;4.22;;;1.70;;
18146;SDS011;9199;48.832;9.182;2024-01-16T13:59:04;3.90;;;1.50;;
18146;SDS011;9199;48.832;9.182;2024-01-16T14:01:30;5.82;;;1.80;;
18146;SDS011;9199;48.832;9.182;2024-01-16T14:03:59;6.47;;;1.65;;
18146;SDS011;9199;48.832;9.182;2024-01-16T14:06:26;5.00;;;1.60;;
18146;SDS011;9199;48.832;9.182;2024-01-16T14:08:53;6.45;;;1.88;;
18146;SDS011;9199;48.832;9.182;2024-01-16T14:11:19;6.18;;;1.83;;
18146;SDS011;9199;48.832;9.182;2024-01-16T14:13:46;4.95;;;1.70;;
18146;SDS011;9199;48.832;9.182;2024-01-16T14:16:13;5.47;;;2.08;;
18146;SDS011;9199;48.832;9.182;2024-01-16T14:18:40;6.20;;;2.30;;
18146;SDS011;9199;48.832;9.182;2024-01-16T14:21:09;7.60;;;2.03;;
18146;SDS011;9199;48.832;9.182;2024-01-16T14:23:35;6.90;;;2.78;;
18146;SDS011;9199;48.832;9.182;2024-01-16T14:26:02;5.90;;;2.40;;
18146;SDS011;9199;48.832;9.182;2024-01-16T14:28:30;6.53;;;2.50;;
18146;SDS011;9199;48.832;9.182;2024-01-16T14:30:58;6.23;;;2.10;;
18146;SDS011;9199;48.832;9.182;2024-01-16T14:33:25;8.85;;;2.80;;
18146;SDS011;9199;48.832;9.182;2024-01-16T14:35:52;7.57;;;2.58;;
18146;SDS011;9199;48.832;9.182;2024-01-16T14:38:21;6.00;;;2.42;;
18146;SDS011;9199;48.832;9.182;2024-01-16T14:40:47;8.95;;;2.53;;
18146;SDS011;9199;48.832;9.182;2024-01-16T14:43:16;9.40;;;2.50;;
18146;SDS011;9199;48.832;9.182;2024-01-16T14:45:43;5.18;;;2.50;;
18146;SDS011;9199;48.832;9.182;2024-01-16T14:48:10;9.63;;;2.60;;
18146;SDS011;9199;48.832;9.182;2024-01-16T14:50:37;9.13;;;2.67;;
18146;SDS011;9199;48.832;9.182;2024-01-16T14:53:04;7.32;;;2.65;;
18146;SDS011;9199;48.832;9.182;2024-01-16T14:55:32;8.20;;;2.60;;
18146;SDS011;9199;48.832;9.182;2024-01-16T14:57:59;8.73;;;2.95;;
18146;SDS011;9199;48.832;9.182;2024-01-16T15:00:26;8.15;;;2.70;;
18146;SDS011;9199;48.832;9.182;2024-01-16T15:02:54;9.57;;;2.40;;
18146;SDS011;9199;48.832;9.182;2024-01-16T15:05:22;8.43;;;2.40;;
18146;SDS011;9199;48.832;9.182;2024-01-16T15:07:49;8.87;;;2.30;;
18146;SDS011;9199;48.832;9.182;2024-01-16T15:10:17;6.65;;;2.30;;
18146;SDS011;9199;48.832;9.182;2024-01-16T15:12:45;5.85;;;2.03;;